sensor_id;sensor_type;location;lat;lon;timestamp;temperature;humidity
9847;DHT22;68671;50.084;8.794;2023-04-25T00:01:57;11.60;99.90
9847;DHT22;68671;50.084;8.794;2023-04-25T00:04:25;11.70;99.90
9847;DHT22;68671;50.084;8.794;2023-04-25T00:06:53;11.70;99.90
9847;DHT22;68671;50.084;8.794;2023-04-25T00:09:20;11.70;99.90
9847;DHT22;68671;50.084;8.794;2023-04-25T00:11:46;11.70;99.90
9847;DHT22;68671;50.084;8.794;2023-04-25T00:14:14;11.70;99.90
9847;DHT22;68671;50.084;8.794;2023-04-25T00:16:43;11.80;99.90
9847;DHT22;68671;50.084;8.794;2023-04-25T00:19:10;11.80;99.90
9847;DHT22;68671;50.084;8.794;2023-04-25T00:21:38;11.80;99.90
9847;DHT22;68671;50.084;8.794;2023-04-25T00:24:06;11.80;99.90
9847;DHT22;68671;50.084;8.794;2023-04-25T00:26:33;11.80;99.90
9847;DHT22;68671;50.084;8.794;2023-04-25T00:29:00;11.80;99.90
9847;DHT22;68671;50.084;8.794;2023-04-25T00:31:27;11.80;99.90
9847;DHT22;68671;50.084;8.794;2023-04-25T00:33:56;11.80;99.90
9847;DHT22;68671;50.084;8.794;2023-04-25T00:36:23;11.80;99.90
9847;DHT22;68671;50.084;8.794;2023-04-25T00:38:51;11.80;99.90
9847;DHT22;68671;50.084;8.794;2023-04-25T00:41:19;11.80;99.90
9847;DHT22;68671;50.084;8.794;2023-04-25T00:43:48;11.80;99.90
9847;DHT22;68671;50.084;8.794;2023-04-25T00:46:14;11.80;99.90
9847;DHT22;68671;50.084;8.794;2023-04-25T00:48:41;11.80;99.90
9847;DHT22;68671;50.084;8.794;2023-04-25T00:51:15;11.80;99.90
9847;DHT22;68671;50.084;8.794;2023-04-25T00:53:45;11.80;99.90
9847;DHT22;68671;50.084;8.794;2023-04-25T00:56:13;11.80;99.90
9847;DHT22;68671;50.084;8.794;2023-04-25T00:58:41;11.80;99.90
9847;DHT22;68671;50.084;8.794;2023-04-25T01:01:09;11.80;99.90
9847;DHT22;68671;50.084;8.794;2023-04-25T01:03:38;11.80;99.90
9847;DHT22;68671;50.084;8.794;2023-04-25T01:06:08;11.70;99.90
9847;DHT22;68671;50.084;8.794;2023-04-25T01:08:37;11.70;99.90
9847;DHT22;68671;50.084;8.794;2023-04-25T01:11:04;11.70;99.90
9847;DHT22;68671;50.084;8.794;2023-04-25T01:13:32;11.70;99.90
9847;DHT22;68671;50.084;8.794;2023-04-25T01:15:59;11.80;99.90
9847;DHT22;68671;50.084;8.794;2023-04-25T01:18:26;11.80;99.90
9847;DHT22;68671;50.084;8.794;2023-04-25T01:20:54;11.80;99.90
9847;DHT22;68671;50.084;8.794;2023-04-25T01:23:22;11.80;99.90
9847;DHT22;68671;50.084;8.794;2023-04-25T04:07:39;11.60;99.90
9847;DHT22;68671;50.084;8.794;2023-04-25T04:10:08;11.70;99.90
9847;DHT22;68671;50.084;8.794;2023-04-25T04:12:35;11.70;99.90
9847;DHT22;68671;50.084;8.794;2023-04-25T04:15:03;11.60;99.90
9847;DHT22;68671;50.084;8.794;2023-04-25T04:17:30;11.60;99.90
9847;DHT22;68671;50.084;8.794;2023-04-25T04:19:57;11.60;99.90
9847;DHT22;68671;50.084;8.794;2023-04-25T04:22:24;11.60;99.90
9847;DHT22;68671;50.084;8.794;2023-04-25T04:24:53;11.60;99.90
9847;DHT22;68671;50.084;8.794;2023-04-25T04:27:21;11.60;99.90
9847;DHT22;68671;50.084;8.794;2023-04-25T04:29:48;11.60;99.90
9847;DHT22;68671;50.084;8.794;2023-04-25T04:32:16;11.60;99.90
9847;DHT22;68671;50.084;8.794;2023-04-25T04:34:43;11.60;99.90
9847;DHT22;68671;50.084;8.794;2023-04-25T04:37:13;11.60;99.90
9847;DHT22;68671;50.084;8.794;2023-04-25T04:39:40;11.60;99.90
9847;DHT22;68671;50.084;8.794;2023-04-25T04:42:08;11.50;99.90
9847;DHT22;68671;50.084;8.794;2023-04-25T04:44:37;11.50;99.90
9847;DHT22;68671;50.084;8.794;2023-04-25T04:47:04;11.60;99.90
9847;DHT22;68671;50.084;8.794;2023-04-25T04:49:33;11.50;99.90
9847;DHT22;68671;50.084;8.794;2023-04-25T04:52:00;11.50;99.90
9847;DHT22;68671;50.084;8.794;2023-04-25T04:54:27;11.50;99.90
9847;DHT22;68671;50.084;8.794;2023-04-25T04:56:54;11.50;99.90
9847;DHT22;68671;50.084;8.794;2023-04-25T04:59:23;11.50;99.90
9847;DHT22;68671;50.084;8.794;2023-04-25T05:01:50;11.50;99.90
9847;DHT22;68671;50.084;8.794;2023-04-25T05:04:17;11.50;99.90
9847;DHT22;68671;50.084;8.794;2023-04-25T05:06:43;11.50;99.90
9847;DHT22;68671;50.084;8.794;2023-04-25T05:09:11;11.60;99.90
9847;DHT22;68671;50.084;8.794;2023-04-25T05:11:58;11.60;99.90
9847;DHT22;68671;50.084;8.794;2023-04-25T05:14:34;11.60;99.90
9847;DHT22;68671;50.084;8.794;2023-04-25T05:17:18;11.70;99.90
9847;DHT22;68671;50.084;8.794;2023-04-25T05:19:49;11.70;99.90
9847;DHT22;68671;50.084;8.794;2023-04-25T05:22:22;11.80;99.90
9847;DHT22;68671;50.084;8.794;2023-04-25T05:25:41;11.80;99.90
9847;DHT22;68671;50.084;8.794;2023-04-25T05:28:01;11.80;99.90
9847;DHT22;68671;50.084;8.794;2023-04-25T05:30:29;11.90;99.90
9847;DHT22;68671;50.084;8.794;2023-04-25T05:32:56;11.90;99.90
9847;DHT22;68671;50.084;8.794;2023-04-25T05:35:23;11.90;99.90
9847;DHT22;68671;50.084;8.794;2023-04-25T05:37:50;12.00;99.90
9847;DHT22;68671;50.084;8.794;2023-04-25T05:40:17;12.00;99.90
9847;DHT22;68671;50.084;8.794;2023-04-25T05:42:44;12.10;99.90
9847;DHT22;68671;50.084;8.794;2023-04-25T05:45:11;12.20;99.90
9847;DHT22;68671;50.084;8.794;2023-04-25T05:47:40;12.20;99.90
9847;DHT22;68671;50.084;8.794;2023-04-25T05:50:08;12.20;99.90
9847;DHT22;68671;50.084;8.794;2023-04-25T05:52:35;12.40;99.90
9847;DHT22;68671;50.084;8.794;2023-04-25T05:55:02;12.40;99.90
9847;DHT22;68671;50.084;8.794;2023-04-25T05:57:30;12.50;99.90
9847;DHT22;68671;50.084;8.794;2023-04-25T05:59:57;12.50;99.90
9847;DHT22;68671;50.084;8.794;2023-04-25T06:02:24;12.50;99.90
9847;DHT22;68671;50.084;8.794;2023-04-25T06:04:53;12.60;99.90
9847;DHT22;68671;50.084;8.794;2023-04-25T06:07:20;12.60;99.90
9847;DHT22;68671;50.084;8.794;2023-04-25T06:09:47;12.60;99.90
9847;DHT22;68671;50.084;8.794;2023-04-25T06:12:14;12.70;99.90
9847;DHT22;68671;50.084;8.794;2023-04-25T06:14:41;12.80;99.90
9847;DHT22;68671;50.084;8.794;2023-04-25T06:17:08;12.80;99.90
9847;DHT22;68671;50.084;8.794;2023-04-25T06:19:35;12.90;99.90
9847;DHT22;68671;50.084;8.794;2023-04-25T06:22:04;12.90;99.90
9847;DHT22;68671;50.084;8.794;2023-04-25T06:24:32;13.00;99.90
9847;DHT22;68671;50.084;8.794;2023-04-25T06:26:59;13.00;99.90
9847;DHT22;68671;50.084;8.794;2023-04-25T06:29:28;13.10;99.90
9847;DHT22;68671;50.084;8.794;2023-04-25T06:31:55;13.20;99.90
9847;DHT22;68671;50.084;8.794;2023-04-25T06:34:22;13.30;99.90
9847;DHT22;68671;50.084;8.794;2023-04-25T06:36:49;13.60;99.90
9847;DHT22;68671;50.084;8.794;2023-04-25T06:42:30;14.60;99.90
9847;DHT22;68671;50.084;8.794;2023-04-25T06:44:57;15.10;99.90
9847;DHT22;68671;50.084;8.794;2023-04-25T06:47:24;15.40;99.90
9847;DHT22;68671;50.084;8.794;2023-04-25T06:49:51;15.60;99.90
9847;DHT22;68671;50.084;8.794;2023-04-25T06:52:18;15.70;99.90
9847;DHT22;68671;50.084;8.794;2023-04-25T06:54:45;15.60;99.80
9847;DHT22;68671;50.084;8.794;2023-04-25T06:57:12;15.60;98.80
9847;DHT22;68671;50.084;8.794;2023-04-25T06:59:40;15.40;97.80
9847;DHT22;68671;50.084;8.794;2023-04-25T07:02:07;15.10;97.40
9847;DHT22;68671;50.084;8.794;2023-04-25T07:04:34;14.80;97.40
9847;DHT22;68671;50.084;8.794;2023-04-25T07:07:01;14.50;96.80
9847;DHT22;68671;50.084;8.794;2023-04-25T07:09:29;14.20;97.00
9847;DHT22;68671;50.084;8.794;2023-04-25T07:11:59;14.10;96.90
9847;DHT22;68671;50.084;8.794;2023-04-25T07:14:26;14.00;96.80
9847;DHT22;68671;50.084;8.794;2023-04-25T07:16:55;14.00;96.50
9847;DHT22;68671;50.084;8.794;2023-04-25T07:19:22;13.90;96.60
9847;DHT22;68671;50.084;8.794;2023-04-25T07:21:51;13.90;96.70
9847;DHT22;68671;50.084;8.794;2023-04-25T07:24:18;13.80;96.80
9847;DHT22;68671;50.084;8.794;2023-04-25T07:26:45;13.80;97.10
9847;DHT22;68671;50.084;8.794;2023-04-25T07:29:13;13.80;97.30
9847;DHT22;68671;50.084;8.794;2023-04-25T07:31:40;13.90;97.90
9847;DHT22;68671;50.084;8.794;2023-04-25T07:34:08;13.90;98.40
9847;DHT22;68671;50.084;8.794;2023-04-25T07:36:36;14.00;98.50
9847;DHT22;68671;50.084;8.794;2023-04-25T07:39:03;14.20;98.60
9847;DHT22;68671;50.084;8.794;2023-04-25T07:41:30;14.20;97.80
9847;DHT22;68671;50.084;8.794;2023-04-25T07:43:57;14.40;97.40
9847;DHT22;68671;50.084;8.794;2023-04-25T07:46:24;14.40;97.10
9847;DHT22;68671;50.084;8.794;2023-04-25T07:48:51;14.60;96.90
9847;DHT22;68671;50.084;8.794;2023-04-25T07:51:19;14.60;96.90
9847;DHT22;68671;50.084;8.794;2023-04-25T07:53:47;14.80;97.40
9847;DHT22;68671;50.084;8.794;2023-04-25T07:56:14;15.10;98.80
9847;DHT22;68671;50.084;8.794;2023-04-25T07:58:41;15.70;98.80
9847;DHT22;68671;50.084;8.794;2023-04-25T08:01:08;16.40;97.80
9847;DHT22;68671;50.084;8.794;2023-04-25T08:03:35;17.00;96.60
9847;DHT22;68671;50.084;8.794;2023-04-25T08:06:02;17.40;94.90
9847;DHT22;68671;50.084;8.794;2023-04-25T08:08:31;17.70;94.70
9847;DHT22;68671;50.084;8.794;2023-04-25T08:10:59;18.10;94.30
9847;DHT22;68671;50.084;8.794;2023-04-25T08:13:26;18.50;93.40
9847;DHT22;68671;50.084;8.794;2023-04-25T08:15:53;18.80;91.60
9847;DHT22;68671;50.084;8.794;2023-04-25T08:18:20;19.00;89.80
9847;DHT22;68671;50.084;8.794;2023-04-25T08:20:47;18.90;85.60
9847;DHT22;68671;50.084;8.794;2023-04-25T08:23:14;18.80;83.00
9847;DHT22;68671;50.084;8.794;2023-04-25T08:25:43;18.70;82.30
9847;DHT22;68671;50.084;8.794;2023-04-25T08:28:10;18.60;81.60
9847;DHT22;68671;50.084;8.794;2023-04-25T08:30:37;18.50;81.10
9847;DHT22;68671;50.084;8.794;2023-04-25T08:33:04;18.50;79.50
9847;DHT22;68671;50.084;8.794;2023-04-25T08:35:31;18.40;77.60
9847;DHT22;68671;50.084;8.794;2023-04-25T08:38:10;18.20;76.90
9847;DHT22;68671;50.084;8.794;2023-04-25T08:40:38;18.00;77.00
9847;DHT22;68671;50.084;8.794;2023-04-25T08:43:07;17.80;76.60
9847;DHT22;68671;50.084;8.794;2023-04-25T08:47:13;17.50;76.90
9847;DHT22;68671;50.084;8.794;2023-04-25T08:49:17;17.40;77.80
9847;DHT22;68671;50.084;8.794;2023-04-25T08:51:45;17.30;78.50
9847;DHT22;68671;50.084;8.794;2023-04-25T08:54:14;17.10;79.40
9847;DHT22;68671;50.084;8.794;2023-04-25T08:56:47;17.10;79.70
9847;DHT22;68671;50.084;8.794;2023-04-25T08:59:17;17.10;80.70
9847;DHT22;68671;50.084;8.794;2023-04-25T09:01:44;17.10;81.40
9847;DHT22;68671;50.084;8.794;2023-04-25T09:04:12;17.20;79.60
9847;DHT22;68671;50.084;8.794;2023-04-25T09:06:39;17.20;78.60
9847;DHT22;68671;50.084;8.794;2023-04-25T09:09:07;17.20;78.40
9847;DHT22;68671;50.084;8.794;2023-04-25T09:11:36;17.30;77.30
9847;DHT22;68671;50.084;8.794;2023-04-25T09:14:14;17.30;76.70
9847;DHT22;68671;50.084;8.794;2023-04-25T09:16:59;17.20;75.70
9847;DHT22;68671;50.084;8.794;2023-04-25T09:19:28;17.30;75.00
9847;DHT22;68671;50.084;8.794;2023-04-25T09:22:22;17.20;74.30
9847;DHT22;68671;50.084;8.794;2023-04-25T09:24:52;17.10;73.60
9847;DHT22;68671;50.084;8.794;2023-04-25T09:27:20;17.10;73.50
9847;DHT22;68671;50.084;8.794;2023-04-25T09:29:48;16.90;73.70
9847;DHT22;68671;50.084;8.794;2023-04-25T09:32:24;16.90;73.60
9847;DHT22;68671;50.084;8.794;2023-04-25T09:34:55;16.80;74.40
9847;DHT22;68671;50.084;8.794;2023-04-25T09:37:23;16.80;75.50
9847;DHT22;68671;50.084;8.794;2023-04-25T09:39:55;16.90;76.10
9847;DHT22;68671;50.084;8.794;2023-04-25T09:42:54;17.00;76.70
9847;DHT22;68671;50.084;8.794;2023-04-25T09:45:29;17.10;75.70
9847;DHT22;68671;50.084;8.794;2023-04-25T09:48:03;17.20;74.00
9847;DHT22;68671;50.084;8.794;2023-04-25T09:50:31;17.20;72.30
9847;DHT22;68671;50.084;8.794;2023-04-25T09:53:07;17.20;71.10
9847;DHT22;68671;50.084;8.794;2023-04-25T09:55:34;17.20;70.70
9847;DHT22;68671;50.084;8.794;2023-04-25T09:58:05;17.10;70.10
9847;DHT22;68671;50.084;8.794;2023-04-25T10:13:08;16.90;69.90
9847;DHT22;68671;50.084;8.794;2023-04-25T10:19:57;16.90;69.60
9847;DHT22;68671;50.084;8.794;2023-04-25T10:26:25;16.90;68.50
9847;DHT22;68671;50.084;8.794;2023-04-25T10:34:47;16.90;65.50
9847;DHT22;68671;50.084;8.794;2023-04-25T10:37:30;16.80;65.40
9847;DHT22;68671;50.084;8.794;2023-04-25T10:40:25;16.80;65.60
9847;DHT22;68671;50.084;8.794;2023-04-25T10:46:25;16.80;65.90
9847;DHT22;68671;50.084;8.794;2023-04-25T10:50:06;16.90;66.20
9847;DHT22;68671;50.084;8.794;2023-04-25T10:52:26;16.90;65.70
9847;DHT22;68671;50.084;8.794;2023-04-25T10:54:55;16.80;65.50
9847;DHT22;68671;50.084;8.794;2023-04-25T10:57:29;16.70;66.00
9847;DHT22;68671;50.084;8.794;2023-04-25T11:00:00;16.60;66.50
9847;DHT22;68671;50.084;8.794;2023-04-25T11:02:29;16.40;67.60
9847;DHT22;68671;50.084;8.794;2023-04-25T11:04:56;16.30;67.30
9847;DHT22;68671;50.084;8.794;2023-04-25T11:07:31;16.10;68.20
9847;DHT22;68671;50.084;8.794;2023-04-25T11:10:02;15.90;69.20
9847;DHT22;68671;50.084;8.794;2023-04-25T11:12:30;15.70;71.00
9847;DHT22;68671;50.084;8.794;2023-04-25T11:15:05;15.50;72.30
9847;DHT22;68671;50.084;8.794;2023-04-25T11:17:33;15.30;73.20
9847;DHT22;68671;50.084;8.794;2023-04-25T11:20:00;15.20;74.80
9847;DHT22;68671;50.084;8.794;2023-04-25T11:22:33;15.20;75.80
9847;DHT22;68671;50.084;8.794;2023-04-25T11:25:05;15.20;76.90
9847;DHT22;68671;50.084;8.794;2023-04-25T11:27:32;15.20;77.00
9847;DHT22;68671;50.084;8.794;2023-04-25T11:30:10;15.20;77.10
9847;DHT22;68671;50.084;8.794;2023-04-25T11:32:39;15.20;77.20
9847;DHT22;68671;50.084;8.794;2023-04-25T11:35:07;15.20;77.80
9847;DHT22;68671;50.084;8.794;2023-04-25T11:37:36;15.30;78.50
9847;DHT22;68671;50.084;8.794;2023-04-25T11:40:04;15.40;78.80
9847;DHT22;68671;50.084;8.794;2023-04-25T11:42:36;15.50;78.90
9847;DHT22;68671;50.084;8.794;2023-04-25T11:45:05;15.60;78.30
9847;DHT22;68671;50.084;8.794;2023-04-25T11:47:33;15.60;76.30
9847;DHT22;68671;50.084;8.794;2023-04-25T11:50:00;15.70;75.60
9847;DHT22;68671;50.084;8.794;2023-04-25T11:52:38;15.70;72.80
9847;DHT22;68671;50.084;8.794;2023-04-25T11:55:07;15.70;71.10
9847;DHT22;68671;50.084;8.794;2023-04-25T11:57:34;15.60;70.20
9847;DHT22;68671;50.084;8.794;2023-04-25T12:00:09;15.50;71.10
9847;DHT22;68671;50.084;8.794;2023-04-25T12:02:40;15.50;71.60
9847;DHT22;68671;50.084;8.794;2023-04-25T12:05:07;15.60;72.20
9847;DHT22;68671;50.084;8.794;2023-04-25T12:07:36;15.70;71.40
9847;DHT22;68671;50.084;8.794;2023-04-25T12:10:05;15.80;71.50
9847;DHT22;68671;50.084;8.794;2023-04-25T12:12:33;15.90;71.60
9847;DHT22;68671;50.084;8.794;2023-04-25T12:15:09;15.90;71.60
9847;DHT22;68671;50.084;8.794;2023-04-25T12:17:37;16.10;71.30
9847;DHT22;68671;50.084;8.794;2023-04-25T12:20:09;16.10;71.00
9847;DHT22;68671;50.084;8.794;2023-04-25T12:22:37;16.20;71.00
9847;DHT22;68671;50.084;8.794;2023-04-25T12:25:05;16.10;71.00
9847;DHT22;68671;50.084;8.794;2023-04-25T12:27:33;16.20;71.40
9847;DHT22;68671;50.084;8.794;2023-04-25T12:30:01;16.30;71.70
9847;DHT22;68671;50.084;8.794;2023-04-25T12:32:37;16.30;71.70
9847;DHT22;68671;50.084;8.794;2023-04-25T12:35:05;16.40;71.60
9847;DHT22;68671;50.084;8.794;2023-04-25T12:37:33;16.50;71.30
9847;DHT22;68671;50.084;8.794;2023-04-25T12:40:01;16.50;70.90
9847;DHT22;68671;50.084;8.794;2023-04-25T12:42:29;16.50;70.60
9847;DHT22;68671;50.084;8.794;2023-04-25T12:44:56;16.60;70.10
9847;DHT22;68671;50.084;8.794;2023-04-25T12:47:23;16.60;69.70
9847;DHT22;68671;50.084;8.794;2023-04-25T12:49:50;16.60;69.50
9847;DHT22;68671;50.084;8.794;2023-04-25T12:52:17;16.70;69.30
9847;DHT22;68671;50.084;8.794;2023-04-25T12:54:44;16.80;69.10
9847;DHT22;68671;50.084;8.794;2023-04-25T12:57:12;16.80;68.00
9847;DHT22;68671;50.084;8.794;2023-04-25T12:59:39;16.80;67.40
9847;DHT22;68671;50.084;8.794;2023-04-25T13:02:06;16.90;66.90
9847;DHT22;68671;50.084;8.794;2023-04-25T13:04:33;16.90;66.40
9847;DHT22;68671;50.084;8.794;2023-04-25T13:07:00;16.90;65.90
9847;DHT22;68671;50.084;8.794;2023-04-25T13:09:27;16.80;66.50
9847;DHT22;68671;50.084;8.794;2023-04-25T13:11:56;16.60;67.00
9847;DHT22;68671;50.084;8.794;2023-04-25T13:14:25;16.30;66.90
9847;DHT22;68671;50.084;8.794;2023-04-25T13:16:52;15.90;67.90
9847;DHT22;68671;50.084;8.794;2023-04-25T13:19:20;15.60;69.00
9847;DHT22;68671;50.084;8.794;2023-04-25T13:21:46;15.60;70.00
9847;DHT22;68671;50.084;8.794;2023-04-25T13:24:13;15.60;70.30
9847;DHT22;68671;50.084;8.794;2023-04-25T13:26:41;15.50;70.50
9847;DHT22;68671;50.084;8.794;2023-04-25T13:29:08;15.50;71.20
9847;DHT22;68671;50.084;8.794;2023-04-25T13:31:36;15.40;71.80
9847;DHT22;68671;50.084;8.794;2023-04-25T13:34:03;15.40;73.90
9847;DHT22;68671;50.084;8.794;2023-04-25T13:36:30;15.30;73.70
9847;DHT22;68671;50.084;8.794;2023-04-25T13:38:57;15.30;74.40
9847;DHT22;68671;50.084;8.794;2023-04-25T13:41:24;15.30;75.20
9847;DHT22;68671;50.084;8.794;2023-04-25T13:43:51;15.40;75.80
9847;DHT22;68671;50.084;8.794;2023-04-25T13:46:18;15.50;76.40
9847;DHT22;68671;50.084;8.794;2023-04-25T13:48:47;15.50;76.40
9847;DHT22;68671;50.084;8.794;2023-04-25T13:51:16;15.70;76.60
9847;DHT22;68671;50.084;8.794;2023-04-25T13:53:43;15.80;75.20
9847;DHT22;68671;50.084;8.794;2023-04-25T13:56:10;15.80;73.80
9847;DHT22;68671;50.084;8.794;2023-04-25T13:58:38;15.90;72.90
9847;DHT22;68671;50.084;8.794;2023-04-25T14:01:05;15.90;72.40
9847;DHT22;68671;50.084;8.794;2023-04-25T14:03:32;16.00;71.20
9847;DHT22;68671;50.084;8.794;2023-04-25T14:06:01;15.90;70.40
9847;DHT22;68671;50.084;8.794;2023-04-25T14:08:28;15.90;69.80
9847;DHT22;68671;50.084;8.794;2023-04-25T14:10:55;15.90;69.20
9847;DHT22;68671;50.084;8.794;2023-04-25T14:13:22;15.90;68.80
9847;DHT22;68671;50.084;8.794;2023-04-25T14:15:50;15.90;69.00
9847;DHT22;68671;50.084;8.794;2023-04-25T14:18:17;15.90;68.80
9847;DHT22;68671;50.084;8.794;2023-04-25T14:20:44;15.90;68.40
9847;DHT22;68671;50.084;8.794;2023-04-25T14:23:12;15.90;67.40
9847;DHT22;68671;50.084;8.794;2023-04-25T14:25:40;15.90;67.10
9847;DHT22;68671;50.084;8.794;2023-04-25T14:28:08;15.80;65.90
9847;DHT22;68671;50.084;8.794;2023-04-25T14:30:35;15.80;66.00
9847;DHT22;68671;50.084;8.794;2023-04-25T14:33:01;15.70;65.10
9847;DHT22;68671;50.084;8.794;2023-04-25T14:35:29;15.70;65.00
9847;DHT22;68671;50.084;8.794;2023-04-25T14:37:56;15.70;65.10
9847;DHT22;68671;50.084;8.794;2023-04-25T14:40:25;15.70;65.10
9847;DHT22;68671;50.084;8.794;2023-04-25T14:42:52;15.70;65.00
9847;DHT22;68671;50.084;8.794;2023-04-25T14:45:20;15.80;64.60
9847;DHT22;68671;50.084;8.794;2023-04-25T14:47:47;15.90;64.20
9847;DHT22;68671;50.084;8.794;2023-04-25T14:50:14;15.90;63.80
9847;DHT22;68671;50.084;8.794;2023-04-25T14:52:41;16.00;64.60
9847;DHT22;68671;50.084;8.794;2023-04-25T14:55:08;16.10;63.40
9847;DHT22;68671;50.084;8.794;2023-04-25T14:57:37;16.20;63.20
9847;DHT22;68671;50.084;8.794;2023-04-25T15:00:05;16.20;63.10
9847;DHT22;68671;50.084;8.794;2023-04-25T15:02:35;16.10;63.40
9847;DHT22;68671;50.084;8.794;2023-04-25T15:05:02;16.00;64.30
9847;DHT22;68671;50.084;8.794;2023-04-25T15:07:29;15.90;65.30
9847;DHT22;68671;50.084;8.794;2023-04-25T15:09:56;15.80;66.30
9847;DHT22;68671;50.084;8.794;2023-04-25T15:12:23;15.70;67.50
9847;DHT22;68671;50.084;8.794;2023-04-25T15:14:53;15.70;67.70
9847;DHT22;68671;50.084;8.794;2023-04-25T15:17:20;15.70;67.40
9847;DHT22;68671;50.084;8.794;2023-04-25T15:19:46;15.60;66.90
9847;DHT22;68671;50.084;8.794;2023-04-25T15:22:13;15.50;66.90
9847;DHT22;68671;50.084;8.794;2023-04-25T15:24:40;15.50;67.10
9847;DHT22;68671;50.084;8.794;2023-04-25T15:27:07;15.40;67.30
9847;DHT22;68671;50.084;8.794;2023-04-25T15:29:34;15.30;67.20
9847;DHT22;68671;50.084;8.794;2023-04-25T15:32:04;15.30;66.70
9847;DHT22;68671;50.084;8.794;2023-04-25T15:34:30;15.20;66.80
9847;DHT22;68671;50.084;8.794;2023-04-25T15:36:57;15.20;66.70
9847;DHT22;68671;50.084;8.794;2023-04-25T15:39:24;15.20;66.70
9847;DHT22;68671;50.084;8.794;2023-04-25T15:41:51;15.20;66.90
9847;DHT22;68671;50.084;8.794;2023-04-25T15:44:18;15.20;67.30
9847;DHT22;68671;50.084;8.794;2023-04-25T15:46:45;15.30;67.10
9847;DHT22;68671;50.084;8.794;2023-04-25T15:49:13;15.20;66.40
9847;DHT22;68671;50.084;8.794;2023-04-25T15:51:40;15.20;65.90
9847;DHT22;68671;50.084;8.794;2023-04-25T15:54:07;15.30;65.30
9847;DHT22;68671;50.084;8.794;2023-04-25T15:56:35;15.20;64.80
9847;DHT22;68671;50.084;8.794;2023-04-25T15:59:02;15.20;65.40
9847;DHT22;68671;50.084;8.794;2023-04-25T16:01:29;15.20;66.10
9847;DHT22;68671;50.084;8.794;2023-04-25T16:03:56;15.30;66.40
9847;DHT22;68671;50.084;8.794;2023-04-25T16:06:26;15.30;66.30
9847;DHT22;68671;50.084;8.794;2023-04-25T16:08:53;15.30;65.90
9847;DHT22;68671;50.084;8.794;2023-04-25T16:11:20;15.40;65.10
9847;DHT22;68671;50.084;8.794;2023-04-25T16:13:48;15.40;64.00
9847;DHT22;68671;50.084;8.794;2023-04-25T16:16:14;15.50;63.40
9847;DHT22;68671;50.084;8.794;2023-04-25T16:18:41;15.50;62.90
9847;DHT22;68671;50.084;8.794;2023-04-25T16:21:09;15.50;62.90
9847;DHT22;68671;50.084;8.794;2023-04-25T16:23:41;15.50;63.10
9847;DHT22;68671;50.084;8.794;2023-04-25T16:26:08;15.50;63.00
9847;DHT22;68671;50.084;8.794;2023-04-25T16:28:34;15.50;63.00
9847;DHT22;68671;50.084;8.794;2023-04-25T16:31:02;15.50;64.10
9847;DHT22;68671;50.084;8.794;2023-04-25T16:33:29;15.50;63.40
9847;DHT22;68671;50.084;8.794;2023-04-25T16:35:55;15.40;62.90
9847;DHT22;68671;50.084;8.794;2023-04-25T16:38:22;15.40;62.50
9847;DHT22;68671;50.084;8.794;2023-04-25T16:40:51;15.40;61.60
9847;DHT22;68671;50.084;8.794;2023-04-25T16:43:18;15.40;62.40
9847;DHT22;68671;50.084;8.794;2023-04-25T16:45:45;15.40;61.60
9847;DHT22;68671;50.084;8.794;2023-04-25T16:48:12;15.40;61.80
9847;DHT22;68671;50.084;8.794;2023-04-25T16:50:40;15.40;62.20
9847;DHT22;68671;50.084;8.794;2023-04-25T16:53:07;15.40;62.50
9847;DHT22;68671;50.084;8.794;2023-04-25T16:55:34;15.30;63.20
9847;DHT22;68671;50.084;8.794;2023-04-25T16:58:03;15.30;63.80
9847;DHT22;68671;50.084;8.794;2023-04-25T17:00:31;15.20;63.90
9847;DHT22;68671;50.084;8.794;2023-04-25T17:02:58;15.10;65.10
9847;DHT22;68671;50.084;8.794;2023-04-25T17:05:25;15.00;64.30
9847;DHT22;68671;50.084;8.794;2023-04-25T17:07:52;14.90;64.10
9847;DHT22;68671;50.084;8.794;2023-04-25T17:10:19;14.90;64.90
9847;DHT22;68671;50.084;8.794;2023-04-25T17:12:46;14.80;65.40
9847;DHT22;68671;50.084;8.794;2023-04-25T17:15:15;14.80;65.40
9847;DHT22;68671;50.084;8.794;2023-04-25T17:17:42;14.80;66.00
9847;DHT22;68671;50.084;8.794;2023-04-25T17:20:12;14.80;65.90
9847;DHT22;68671;50.084;8.794;2023-04-25T17:22:47;14.80;66.10
9847;DHT22;68671;50.084;8.794;2023-04-25T17:25:20;14.80;66.30
9847;DHT22;68671;50.084;8.794;2023-04-25T17:27:47;14.80;65.80
9847;DHT22;68671;50.084;8.794;2023-04-25T17:30:16;14.80;65.80
9847;DHT22;68671;50.084;8.794;2023-04-25T17:32:43;14.70;65.70
9847;DHT22;68671;50.084;8.794;2023-04-25T17:35:10;14.70;65.70
9847;DHT22;68671;50.084;8.794;2023-04-25T17:37:38;14.70;65.80
9847;DHT22;68671;50.084;8.794;2023-04-25T17:40:06;14.80;65.70
9847;DHT22;68671;50.084;8.794;2023-04-25T17:42:36;14.60;65.00
9847;DHT22;68671;50.084;8.794;2023-04-25T17:45:04;14.60;65.90
9847;DHT22;68671;50.084;8.794;2023-04-25T17:47:34;14.50;65.20
9847;DHT22;68671;50.084;8.794;2023-04-25T17:50:01;14.50;65.40
9847;DHT22;68671;50.084;8.794;2023-04-25T17:52:29;14.30;65.10
9847;DHT22;68671;50.084;8.794;2023-04-25T17:54:56;14.20;65.50
9847;DHT22;68671;50.084;8.794;2023-04-25T17:57:23;14.20;66.40
9847;DHT22;68671;50.084;8.794;2023-04-25T17:59:51;14.00;67.00
9847;DHT22;68671;50.084;8.794;2023-04-25T18:02:18;13.90;67.20
9847;DHT22;68671;50.084;8.794;2023-04-25T18:04:47;13.90;67.30
9847;DHT22;68671;50.084;8.794;2023-04-25T18:07:14;13.90;66.90
9847;DHT22;68671;50.084;8.794;2023-04-25T18:09:44;13.90;66.60
9847;DHT22;68671;50.084;8.794;2023-04-25T18:12:11;13.80;66.60
9847;DHT22;68671;50.084;8.794;2023-04-25T18:14:39;13.80;66.60
9847;DHT22;68671;50.084;8.794;2023-04-25T18:17:06;13.70;67.00
9847;DHT22;68671;50.084;8.794;2023-04-25T18:19:33;13.60;67.30
9847;DHT22;68671;50.084;8.794;2023-04-25T18:22:01;13.60;67.60
9847;DHT22;68671;50.084;8.794;2023-04-25T18:24:28;13.60;67.70
9847;DHT22;68671;50.084;8.794;2023-04-25T18:26:56;13.50;67.80
9847;DHT22;68671;50.084;8.794;2023-04-25T18:29:25;13.50;68.40
9847;DHT22;68671;50.084;8.794;2023-04-25T18:31:53;13.40;68.50
9847;DHT22;68671;50.084;8.794;2023-04-25T18:34:20;13.40;68.80
9847;DHT22;68671;50.084;8.794;2023-04-25T18:36:49;13.40;69.10
9847;DHT22;68671;50.084;8.794;2023-04-25T18:39:18;13.40;69.40
9847;DHT22;68671;50.084;8.794;2023-04-25T18:41:46;13.30;69.30
9847;DHT22;68671;50.084;8.794;2023-04-25T18:44:13;13.30;69.60
9847;DHT22;68671;50.084;8.794;2023-04-25T18:46:40;13.10;69.60
9847;DHT22;68671;50.084;8.794;2023-04-25T18:49:10;13.00;69.90
9847;DHT22;68671;50.084;8.794;2023-04-25T18:51:37;13.00;70.40
9847;DHT22;68671;50.084;8.794;2023-04-25T18:54:04;13.00;70.80
9847;DHT22;68671;50.084;8.794;2023-04-25T18:56:35;12.90;71.10
9847;DHT22;68671;50.084;8.794;2023-04-25T18:59:02;12.90;71.40
9847;DHT22;68671;50.084;8.794;2023-04-25T19:01:29;12.90;71.70
9847;DHT22;68671;50.084;8.794;2023-04-25T19:03:56;12.90;72.00
9847;DHT22;68671;50.084;8.794;2023-04-25T19:06:25;12.90;72.10
9847;DHT22;68671;50.084;8.794;2023-04-25T19:08:54;12.90;72.20
9847;DHT22;68671;50.084;8.794;2023-04-25T19:11:22;12.80;72.10